sensor_id;sensor_type;location;lat;lon;timestamp;temperature;humidity
21104;DHT22;10710;53.398;-1.514;2022-10-23T00:01:21;14.70;99.90
21104;DHT22;10710;53.398;-1.514;2022-10-23T00:03:50;14.60;99.90
21104;DHT22;10710;53.398;-1.514;2022-10-23T00:06:17;14.60;99.90
21104;DHT22;10710;53.398;-1.514;2022-10-23T00:08:45;14.70;99.90
21104;DHT22;10710;53.398;-1.514;2022-10-23T00:11:14;14.70;99.90
21104;DHT22;10710;53.398;-1.514;2022-10-23T00:13:40;14.80;99.90
21104;DHT22;10710;53.398;-1.514;2022-10-23T00:16:07;14.90;99.90
21104;DHT22;10710;53.398;-1.514;2022-10-23T00:18:33;14.90;99.90
21104;DHT22;10710;53.398;-1.514;2022-10-23T00:20:59;14.90;99.90
21104;DHT22;10710;53.398;-1.514;2022-10-23T00:23:25;15.00;99.90
21104;DHT22;10710;53.398;-1.514;2022-10-23T00:25:51;15.00;99.90
21104;DHT22;10710;53.398;-1.514;2022-10-23T00:28:17;15.10;99.90
21104;DHT22;10710;53.398;-1.514;2022-10-23T00:30:43;15.10;99.90
21104;DHT22;10710;53.398;-1.514;2022-10-23T00:33:09;15.20;99.90
21104;DHT22;10710;53.398;-1.514;2022-10-23T00:35:41;15.10;99.90
21104;DHT22;10710;53.398;-1.514;2022-10-23T00:38:09;15.10;99.90
21104;DHT22;10710;53.398;-1.514;2022-10-23T00:40:36;15.10;99.90
21104;DHT22;10710;53.398;-1.514;2022-10-23T00:43:02;15.10;99.90
21104;DHT22;10710;53.398;-1.514;2022-10-23T00:45:32;15.10;99.90
21104;DHT22;10710;53.398;-1.514;2022-10-23T00:47:59;15.10;99.90
21104;DHT22;10710;53.398;-1.514;2022-10-23T00:50:27;15.10;99.90
21104;DHT22;10710;53.398;-1.514;2022-10-23T00:52:55;15.20;99.90
21104;DHT22;10710;53.398;-1.514;2022-10-23T00:55:22;15.10;99.90
21104;DHT22;10710;53.398;-1.514;2022-10-23T00:57:50;15.10;99.90
21104;DHT22;10710;53.398;-1.514;2022-10-23T01:00:22;15.10;99.90
21104;DHT22;10710;53.398;-1.514;2022-10-23T01:02:51;15.20;99.90
21104;DHT22;10710;53.398;-1.514;2022-10-23T01:05:18;15.10;99.90
21104;DHT22;10710;53.398;-1.514;2022-10-23T01:07:49;15.20;99.90
21104;DHT22;10710;53.398;-1.514;2022-10-23T01:15:40;15.20;99.90
21104;DHT22;10710;53.398;-1.514;2022-10-23T01:18:30;15.10;99.90
21104;DHT22;10710;53.398;-1.514;2022-10-23T01:21:14;15.20;99.90
21104;DHT22;10710;53.398;-1.514;2022-10-23T01:29:18;15.20;99.90
21104;DHT22;10710;53.398;-1.514;2022-10-23T01:34:29;15.20;99.90
21104;DHT22;10710;53.398;-1.514;2022-10-23T01:36:56;15.20;99.90
21104;DHT22;10710;53.398;-1.514;2022-10-23T01:39:27;15.30;99.90
21104;DHT22;10710;53.398;-1.514;2022-10-23T01:42:08;15.20;99.90
21104;DHT22;10710;53.398;-1.514;2022-10-23T01:45:06;15.20;99.90
21104;DHT22;10710;53.398;-1.514;2022-10-23T01:47:34;15.20;99.90
21104;DHT22;10710;53.398;-1.514;2022-10-23T01:50:02;15.20;99.90
21104;DHT22;10710;53.398;-1.514;2022-10-23T01:52:29;15.20;99.90
21104;DHT22;10710;53.398;-1.514;2022-10-23T01:54:58;15.20;99.90
21104;DHT22;10710;53.398;-1.514;2022-10-23T01:57:29;15.20;99.90
21104;DHT22;10710;53.398;-1.514;2022-10-23T02:00:03;15.20;99.90
21104;DHT22;10710;53.398;-1.514;2022-10-23T02:02:31;15.20;99.90
21104;DHT22;10710;53.398;-1.514;2022-10-23T02:05:21;15.20;99.90
21104;DHT22;10710;53.398;-1.514;2022-10-23T02:07:50;15.20;99.90
21104;DHT22;10710;53.398;-1.514;2022-10-23T02:10:16;15.30;99.90
21104;DHT22;10710;53.398;-1.514;2022-10-23T02:12:55;15.30;99.90
21104;DHT22;10710;53.398;-1.514;2022-10-23T02:15:35;15.30;99.90
21104;DHT22;10710;53.398;-1.514;2022-10-23T02:20:48;15.30;99.90
21104;DHT22;10710;53.398;-1.514;2022-10-23T02:26:03;15.30;99.90
21104;DHT22;10710;53.398;-1.514;2022-10-23T02:28:45;15.40;99.90
21104;DHT22;10710;53.398;-1.514;2022-10-23T02:31:15;15.30;99.90
21104;DHT22;10710;53.398;-1.514;2022-10-23T02:33:43;15.40;99.90
21104;DHT22;10710;53.398;-1.514;2022-10-23T02:36:10;15.40;99.90
21104;DHT22;10710;53.398;-1.514;2022-10-23T02:38:38;15.40;99.90
21104;DHT22;10710;53.398;-1.514;2022-10-23T02:41:28;15.30;99.90
21104;DHT22;10710;53.398;-1.514;2022-10-23T02:47:09;15.40;99.90
21104;DHT22;10710;53.398;-1.514;2022-10-23T02:52:23;15.40;99.90
21104;DHT22;10710;53.398;-1.514;2022-10-23T02:55:05;15.40;99.90
21104;DHT22;10710;53.398;-1.514;2022-10-23T03:00:30;15.40;99.90
21104;DHT22;10710;53.398;-1.514;2022-10-23T03:03:20;15.40;99.90
21104;DHT22;10710;53.398;-1.514;2022-10-23T03:05:47;15.40;99.90
21104;DHT22;10710;53.398;-1.514;2022-10-23T03:08:13;15.30;99.90
21104;DHT22;10710;53.398;-1.514;2022-10-23T03:10:40;15.30;99.90
21104;DHT22;10710;53.398;-1.514;2022-10-23T03:13:07;15.40;99.90
21104;DHT22;10710;53.398;-1.514;2022-10-23T03:15:34;15.30;99.90
21104;DHT22;10710;53.398;-1.514;2022-10-23T03:17:59;15.30;99.90
21104;DHT22;10710;53.398;-1.514;2022-10-23T03:20:26;15.30;99.90
21104;DHT22;10710;53.398;-1.514;2022-10-23T03:22:51;15.30;99.90
21104;DHT22;10710;53.398;-1.514;2022-10-23T03:25:17;15.30;99.90
21104;DHT22;10710;53.398;-1.514;2022-10-23T03:27:43;15.30;99.90
21104;DHT22;10710;53.398;-1.514;2022-10-23T03:30:09;15.30;99.90
21104;DHT22;10710;53.398;-1.514;2022-10-23T03:32:35;15.20;99.90
21104;DHT22;10710;53.398;-1.514;2022-10-23T03:35:01;15.30;99.90
21104;DHT22;10710;53.398;-1.514;2022-10-23T03:37:27;15.20;99.90
21104;DHT22;10710;53.398;-1.514;2022-10-23T03:39:53;15.20;99.90
21104;DHT22;10710;53.398;-1.514;2022-10-23T03:42:19;15.20;99.90
21104;DHT22;10710;53.398;-1.514;2022-10-23T03:44:45;15.20;99.90
21104;DHT22;10710;53.398;-1.514;2022-10-23T03:47:11;15.20;99.90
21104;DHT22;10710;53.398;-1.514;2022-10-23T03:49:37;15.30;99.90
21104;DHT22;10710;53.398;-1.514;2022-10-23T03:52:04;15.20;99.90
21104;DHT22;10710;53.398;-1.514;2022-10-23T03:54:31;15.20;99.90
21104;DHT22;10710;53.398;-1.514;2022-10-23T03:56:59;15.20;99.90
21104;DHT22;10710;53.398;-1.514;2022-10-23T03:59:25;15.10;99.90
21104;DHT22;10710;53.398;-1.514;2022-10-23T04:01:51;15.10;99.90
21104;DHT22;10710;53.398;-1.514;2022-10-23T04:04:17;15.20;99.90
21104;DHT22;10710;53.398;-1.514;2022-10-23T04:06:43;15.10;99.90
21104;DHT22;10710;53.398;-1.514;2022-10-23T04:09:09;15.10;99.90
21104;DHT22;10710;53.398;-1.514;2022-10-23T04:11:35;15.10;99.90
21104;DHT22;10710;53.398;-1.514;2022-10-23T04:14:01;15.10;99.90
21104;DHT22;10710;53.398;-1.514;2022-10-23T04:16:27;15.10;99.90
21104;DHT22;10710;53.398;-1.514;2022-10-23T04:18:52;15.10;99.90
21104;DHT22;10710;53.398;-1.514;2022-10-23T04:21:18;15.10;99.90
21104;DHT22;10710;53.398;-1.514;2022-10-23T04:23:44;15.20;99.90
21104;DHT22;10710;53.398;-1.514;2022-10-23T04:26:10;15.20;99.90
21104;DHT22;10710;53.398;-1.514;2022-10-23T04:28:36;15.10;99.90
21104;DHT22;10710;53.398;-1.514;2022-10-23T04:31:01;15.10;99.90
21104;DHT22;10710;53.398;-1.514;2022-10-23T04:33:27;15.10;99.90
21104;DHT22;10710;53.398;-1.514;2022-10-23T04:35:53;15.10;99.90
21104;DHT22;10710;53.398;-1.514;2022-10-23T04:38:19;15.10;99.90
21104;DHT22;10710;53.398;-1.514;2022-10-23T04:40:45;15.10;99.90
21104;DHT22;10710;53.398;-1.514;2022-10-23T04:43:11;15.10;99.90
21104;DHT22;10710;53.398;-1.514;2022-10-23T04:45:38;15.10;99.90
21104;DHT22;10710;53.398;-1.514;2022-10-23T04:48:04;15.10;99.90
21104;DHT22;10710;53.398;-1.514;2022-10-23T04:50:30;15.10;99.90
21104;DHT22;10710;53.398;-1.514;2022-10-23T04:52:57;15.20;99.90
21104;DHT22;10710;53.398;-1.514;2022-10-23T04:55:23;15.20;99.90
21104;DHT22;10710;53.398;-1.514;2022-10-23T04:57:50;15.20;99.90
21104;DHT22;10710;53.398;-1.514;2022-10-23T05:00:18;15.30;99.90
21104;DHT22;10710;53.398;-1.514;2022-10-23T05:02:44;15.20;99.90
21104;DHT22;10710;53.398;-1.514;2022-10-23T05:05:10;15.30;99.90
21104;DHT22;10710;53.398;-1.514;2022-10-23T05:07:37;15.30;99.90
21104;DHT22;10710;53.398;-1.514;2022-10-23T05:10:04;15.30;99.90
21104;DHT22;10710;53.398;-1.514;2022-10-23T05:12:30;15.30;99.90
21104;DHT22;10710;53.398;-1.514;2022-10-23T05:14:56;15.30;99.90
21104;DHT22;10710;53.398;-1.514;2022-10-23T05:17:28;15.30;99.90
21104;DHT22;10710;53.398;-1.514;2022-10-23T05:19:57;15.30;99.90
21104;DHT22;10710;53.398;-1.514;2022-10-23T05:22:26;15.30;99.90
21104;DHT22;10710;53.398;-1.514;2022-10-23T05:24:53;15.30;99.90
21104;DHT22;10710;53.398;-1.514;2022-10-23T05:27:19;15.30;99.90
21104;DHT22;10710;53.398;-1.514;2022-10-23T05:29:45;15.30;99.90
21104;DHT22;10710;53.398;-1.514;2022-10-23T05:32:12;15.30;99.90
21104;DHT22;10710;53.398;-1.514;2022-10-23T05:34:39;15.30;99.90
21104;DHT22;10710;53.398;-1.514;2022-10-23T05:37:08;15.30;99.90
21104;DHT22;10710;53.398;-1.514;2022-10-23T05:39:35;15.30;99.90
21104;DHT22;10710;53.398;-1.514;2022-10-23T05:42:01;15.30;99.90
21104;DHT22;10710;53.398;-1.514;2022-10-23T05:44:26;15.30;99.90
21104;DHT22;10710;53.398;-1.514;2022-10-23T05:46:52;15.30;99.90
21104;DHT22;10710;53.398;-1.514;2022-10-23T05:49:18;15.30;99.90
21104;DHT22;10710;53.398;-1.514;2022-10-23T05:51:44;15.30;99.90
21104;DHT22;10710;53.398;-1.514;2022-10-23T05:54:10;15.40;99.90
21104;DHT22;10710;53.398;-1.514;2022-10-23T05:56:38;15.40;99.90
21104;DHT22;10710;53.398;-1.514;2022-10-23T05:59:06;15.40;99.90
21104;DHT22;10710;53.398;-1.514;2022-10-23T06:01:32;15.20;99.90
21104;DHT22;10710;53.398;-1.514;2022-10-23T06:03:59;15.30;99.90
21104;DHT22;10710;53.398;-1.514;2022-10-23T06:06:25;15.20;99.90
21104;DHT22;10710;53.398;-1.514;2022-10-23T06:08:51;15.20;99.90
21104;DHT22;10710;53.398;-1.514;2022-10-23T06:11:17;15.20;99.90
21104;DHT22;10710;53.398;-1.514;2022-10-23T06:13:44;15.20;99.90
21104;DHT22;10710;53.398;-1.514;2022-10-23T06:16:13;15.10;99.90
21104;DHT22;10710;53.398;-1.514;2022-10-23T06:18:39;15.20;99.90
21104;DHT22;10710;53.398;-1.514;2022-10-23T06:21:06;15.10;99.90
21104;DHT22;10710;53.398;-1.514;2022-10-23T06:23:33;15.20;99.90
21104;DHT22;10710;53.398;-1.514;2022-10-23T06:26:00;15.20;99.90
21104;DHT22;10710;53.398;-1.514;2022-10-23T06:28:26;15.10;99.90
21104;DHT22;10710;53.398;-1.514;2022-10-23T06:30:52;15.10;99.90
21104;DHT22;10710;53.398;-1.514;2022-10-23T06:33:18;15.10;99.90
21104;DHT22;10710;53.398;-1.514;2022-10-23T06:35:43;15.20;99.90
21104;DHT22;10710;53.398;-1.514;2022-10-23T06:38:10;15.10;99.90
21104;DHT22;10710;53.398;-1.514;2022-10-23T06:40:36;15.10;99.90
21104;DHT22;10710;53.398;-1.514;2022-10-23T06:43:02;15.10;99.90
21104;DHT22;10710;53.398;-1.514;2022-10-23T06:45:29;15.10;99.90
21104;DHT22;10710;53.398;-1.514;2022-10-23T06:47:57;15.10;99.90
21104;DHT22;10710;53.398;-1.514;2022-10-23T06:50:23;15.20;99.90
21104;DHT22;10710;53.398;-1.514;2022-10-23T06:52:49;15.10;99.90
21104;DHT22;10710;53.398;-1.514;2022-10-23T06:55:16;15.10;99.90
21104;DHT22;10710;53.398;-1.514;2022-10-23T06:57:42;15.20;99.90
21104;DHT22;10710;53.398;-1.514;2022-10-23T07:00:08;15.20;99.90
21104;DHT22;10710;53.398;-1.514;2022-10-23T07:02:35;15.10;99.90
21104;DHT22;10710;53.398;-1.514;2022-10-23T07:05:00;15.00;99.90
21104;DHT22;10710;53.398;-1.514;2022-10-23T07:07:29;15.00;99.90
21104;DHT22;10710;53.398;-1.514;2022-10-23T07:09:55;15.00;99.90
21104;DHT22;10710;53.398;-1.514;2022-10-23T07:12:22;14.90;99.90
21104;DHT22;10710;53.398;-1.514;2022-10-23T07:14:47;14.90;99.90
21104;DHT22;10710;53.398;-1.514;2022-10-23T07:17:14;14.80;99.90
21104;DHT22;10710;53.398;-1.514;2022-10-23T07:19:40;14.80;99.90
21104;DHT22;10710;53.398;-1.514;2022-10-23T07:22:05;14.80;99.90
21104;DHT22;10710;53.398;-1.514;2022-10-23T07:24:31;14.80;99.90
21104;DHT22;10710;53.398;-1.514;2022-10-23T07:27:02;14.70;99.90
21104;DHT22;10710;53.398;-1.514;2022-10-23T07:29:28;14.70;99.90
21104;DHT22;10710;53.398;-1.514;2022-10-23T07:31:55;14.70;99.90
21104;DHT22;10710;53.398;-1.514;2022-10-23T07:34:22;14.70;99.90
21104;DHT22;10710;53.398;-1.514;2022-10-23T07:36:48;14.70;99.90
21104;DHT22;10710;53.398;-1.514;2022-10-23T07:39:14;14.60;99.90
21104;DHT22;10710;53.398;-1.514;2022-10-23T07:41:40;14.80;99.90
21104;DHT22;10710;53.398;-1.514;2022-10-23T07:44:06;14.60;99.90
21104;DHT22;10710;53.398;-1.514;2022-10-23T07:46:31;14.60;99.90
21104;DHT22;10710;53.398;-1.514;2022-10-23T07:48:57;14.50;99.90
21104;DHT22;10710;53.398;-1.514;2022-10-23T07:51:23;14.40;99.90
21104;DHT22;10710;53.398;-1.514;2022-10-23T07:53:48;14.50;99.90
21104;DHT22;10710;53.398;-1.514;2022-10-23T07:56:22;14.60;99.90
21104;DHT22;10710;53.398;-1.514;2022-10-23T07:58:51;14.50;99.90
21104;DHT22;10710;53.398;-1.514;2022-10-23T08:01:29;14.40;99.90
21104;DHT22;10710;53.398;-1.514;2022-10-23T08:03:55;14.40;99.90
21104;DHT22;10710;53.398;-1.514;2022-10-23T08:06:21;14.40;99.90
21104;DHT22;10710;53.398;-1.514;2022-10-23T08:08:47;14.40;99.90
21104;DHT22;10710;53.398;-1.514;2022-10-23T08:11:14;14.40;99.90
21104;DHT22;10710;53.398;-1.514;2022-10-23T08:13:42;14.40;99.90
21104;DHT22;10710;53.398;-1.514;2022-10-23T08:16:08;14.40;99.90
21104;DHT22;10710;53.398;-1.514;2022-10-23T08:18:35;14.40;99.90
21104;DHT22;10710;53.398;-1.514;2022-10-23T08:21:02;14.40;99.90
21104;DHT22;10710;53.398;-1.514;2022-10-23T08:23:29;14.60;99.90
21104;DHT22;10710;53.398;-1.514;2022-10-23T08:26:00;14.40;99.90
21104;DHT22;10710;53.398;-1.514;2022-10-23T08:28:27;14.40;99.90
21104;DHT22;10710;53.398;-1.514;2022-10-23T08:30:54;14.50;99.90
21104;DHT22;10710;53.398;-1.514;2022-10-23T08:33:20;14.50;99.90
21104;DHT22;10710;53.398;-1.514;2022-10-23T08:35:47;14.50;99.90
21104;DHT22;10710;53.398;-1.514;2022-10-23T08:38:12;14.50;99.90
21104;DHT22;10710;53.398;-1.514;2022-10-23T08:40:45;14.50;99.90
21104;DHT22;10710;53.398;-1.514;2022-10-23T08:43:35;14.50;99.90
21104;DHT22;10710;53.398;-1.514;2022-10-23T08:46:12;14.50;99.90
21104;DHT22;10710;53.398;-1.514;2022-10-23T08:48:46;14.60;99.90
21104;DHT22;10710;53.398;-1.514;2022-10-23T08:51:23;14.50;99.90
21104;DHT22;10710;53.398;-1.514;2022-10-23T08:53:55;14.50;99.90
21104;DHT22;10710;53.398;-1.514;2022-10-23T08:56:34;14.50;99.90
21104;DHT22;10710;53.398;-1.514;2022-10-23T09:02:29;14.50;99.90
21104;DHT22;10710;53.398;-1.514;2022-10-23T09:04:57;14.50;99.90
21104;DHT22;10710;53.398;-1.514;2022-10-23T09:13:18;14.50;99.90
21104;DHT22;10710;53.398;-1.514;2022-10-23T09:18:25;14.50;99.90
21104;DHT22;10710;53.398;-1.514;2022-10-23T09:20:51;14.60;99.90
21104;DHT22;10710;53.398;-1.514;2022-10-23T09:23:22;14.50;99.90
21104;DHT22;10710;53.398;-1.514;2022-10-23T09:25:51;14.50;99.90
21104;DHT22;10710;53.398;-1.514;2022-10-23T09:28:28;14.50;99.90
21104;DHT22;10710;53.398;-1.514;2022-10-23T09:31:08;14.50;99.90
21104;DHT22;10710;53.398;-1.514;2022-10-23T09:33:36;14.50;99.90
21104;DHT22;10710;53.398;-1.514;2022-10-23T09:36:04;14.50;99.90
21104;DHT22;10710;53.398;-1.514;2022-10-23T09:38:44;14.50;99.90
21104;DHT22;10710;53.398;-1.514;2022-10-23T09:41:19;14.50;99.90
21104;DHT22;10710;53.398;-1.514;2022-10-23T09:43:46;14.60;99.90
21104;DHT22;10710;53.398;-1.514;2022-10-23T09:46:23;14.50;99.90
21104;DHT22;10710;53.398;-1.514;2022-10-23T09:48:57;14.60;99.90
21104;DHT22;10710;53.398;-1.514;2022-10-23T09:51:23;14.60;99.90
21104;DHT22;10710;53.398;-1.514;2022-10-23T09:53:57;14.60;99.90
21104;DHT22;10710;53.398;-1.514;2022-10-23T09:56:38;14.60;99.90
21104;DHT22;10710;53.398;-1.514;2022-10-23T09:59:22;14.70;99.90
21104;DHT22;10710;53.398;-1.514;2022-10-23T10:04:17;14.60;99.90
21104;DHT22;10710;53.398;-1.514;2022-10-23T10:06:43;14.60;99.90
21104;DHT22;10710;53.398;-1.514;2022-10-23T10:09:15;14.70;99.90
21104;DHT22;10710;53.398;-1.514;2022-10-23T10:11:54;14.60;99.90
21104;DHT22;10710;53.398;-1.514;2022-10-23T10:14:44;14.80;99.90
21104;DHT22;10710;53.398;-1.514;2022-10-23T10:25:36;14.70;99.90
21104;DHT22;10710;53.398;-1.514;2022-10-23T10:31:18;14.80;99.90
21104;DHT22;10710;53.398;-1.514;2022-10-23T10:36:54;14.60;99.90
21104;DHT22;10710;53.398;-1.514;2022-10-23T10:44:52;14.70;99.90
21104;DHT22;10710;53.398;-1.514;2022-10-23T10:53:26;14.70;99.90
21104;DHT22;10710;53.398;-1.514;2022-10-23T10:55:54;14.70;99.90
21104;DHT22;10710;53.398;-1.514;2022-10-23T10:58:54;14.80;99.90
21104;DHT22;10710;53.398;-1.514;2022-10-23T11:03:58;14.80;99.90
21104;DHT22;10710;53.398;-1.514;2022-10-23T11:06:31;14.80;99.90
21104;DHT22;10710;53.398;-1.514;2022-10-23T11:09:04;14.90;99.90
21104;DHT22;10710;53.398;-1.514;2022-10-23T11:11:38;14.90;99.90
21104;DHT22;10710;53.398;-1.514;2022-10-23T11:14:12;15.00;99.90
21104;DHT22;10710;53.398;-1.514;2022-10-23T11:16:39;15.10;99.90
21104;DHT22;10710;53.398;-1.514;2022-10-23T11:19:15;15.30;99.90
21104;DHT22;10710;53.398;-1.514;2022-10-23T11:41:04;15.50;99.90
21104;DHT22;10710;53.398;-1.514;2022-10-23T11:43:52;15.60;99.90
21104;DHT22;10710;53.398;-1.514;2022-10-23T11:48:50;15.80;99.90
21104;DHT22;10710;53.398;-1.514;2022-10-23T11:51:32;15.70;99.90
21104;DHT22;10710;53.398;-1.514;2022-10-23T12:02:35;15.80;99.90
21104;DHT22;10710;53.398;-1.514;2022-10-23T12:07:57;15.80;99.90
21104;DHT22;10710;53.398;-1.514;2022-10-23T12:10:47;15.80;99.90
21104;DHT22;10710;53.398;-1.514;2022-10-23T12:16:04;15.90;99.90
21104;DHT22;10710;53.398;-1.514;2022-10-23T12:18:32;15.90;99.90
21104;DHT22;10710;53.398;-1.514;2022-10-23T12:21:02;15.90;99.90
21104;DHT22;10710;53.398;-1.514;2022-10-23T12:23:50;15.90;99.90
21104;DHT22;10710;53.398;-1.514;2022-10-23T12:26:41;15.90;99.90
21104;DHT22;10710;53.398;-1.514;2022-10-23T12:29:39;15.90;99.90
21104;DHT22;10710;53.398;-1.514;2022-10-23T12:39:40;16.30;99.90
21104;DHT22;10710;53.398;-1.514;2022-10-23T12:42:15;16.40;99.90
21104;DHT22;10710;53.398;-1.514;2022-10-23T12:44:42;16.30;99.90
21104;DHT22;10710;53.398;-1.514;2022-10-23T12:47:16;16.40;99.90
21104;DHT22;10710;53.398;-1.514;2022-10-23T12:49:48;16.70;99.90
21104;DHT22;10710;53.398;-1.514;2022-10-23T12:52:16;17.10;99.90
21104;DHT22;10710;53.398;-1.514;2022-10-23T12:54:43;17.30;99.90
21104;DHT22;10710;53.398;-1.514;2022-10-23T12:57:26;17.40;99.90
21104;DHT22;10710;53.398;-1.514;2022-10-23T13:00:07;17.40;99.90
21104;DHT22;10710;53.398;-1.514;2022-10-23T13:02:35;17.50;99.90
21104;DHT22;10710;53.398;-1.514;2022-10-23T13:05:05;17.50;99.90
21104;DHT22;10710;53.398;-1.514;2022-10-23T13:07:37;17.60;99.90
21104;DHT22;10710;53.398;-1.514;2022-10-23T13:10:13;17.60;99.90
21104;DHT22;10710;53.398;-1.514;2022-10-23T13:12:42;17.40;99.90
21104;DHT22;10710;53.398;-1.514;2022-10-23T13:17:47;17.40;99.90
21104;DHT22;10710;53.398;-1.514;2022-10-23T13:20:26;17.50;99.90
21104;DHT22;10710;53.398;-1.514;2022-10-23T13:22:58;17.50;99.90
21104;DHT22;10710;53.398;-1.514;2022-10-23T13:25:30;17.50;99.90
21104;DHT22;10710;53.398;-1.514;2022-10-23T13:28:25;17.60;99.90
21104;DHT22;10710;53.398;-1.514;2022-10-23T13:33:49;17.60;99.90
21104;DHT22;10710;53.398;-1.514;2022-10-23T13:36:19;17.70;99.90
21104;DHT22;10710;53.398;-1.514;2022-10-23T13:41:24;17.50;99.90
21104;DHT22;10710;53.398;-1.514;2022-10-23T13:43:50;17.40;99.90
21104;DHT22;10710;53.398;-1.514;2022-10-23T13:46:19;17.20;99.90
21104;DHT22;10710;53.398;-1.514;2022-10-23T13:48:46;17.20;99.90
21104;DHT22;10710;53.398;-1.514;2022-10-23T13:51:23;17.10;99.90
21104;DHT22;10710;53.398;-1.514;2022-10-23T13:53:50;17.10;99.90
21104;DHT22;10710;53.398;-1.514;2022-10-23T13:56:18;17.10;99.90
21104;DHT22;10710;53.398;-1.514;2022-10-23T13:58:44;17.20;99.90
21104;DHT22;10710;53.398;-1.514;2022-10-23T14:01:28;17.40;99.90
21104;DHT22;10710;53.398;-1.514;2022-10-23T14:03:56;17.50;99.90
21104;DHT22;10710;53.398;-1.514;2022-10-23T14:06:22;17.80;99.90
21104;DHT22;10710;53.398;-1.514;2022-10-23T14:08:48;18.10;99.90
21104;DHT22;10710;53.398;-1.514;2022-10-23T14:11:16;18.10;99.90
21104;DHT22;10710;53.398;-1.514;2022-10-23T14:13:43;18.00;99.90
21104;DHT22;10710;53.398;-1.514;2022-10-23T14:16:11;17.90;99.90
21104;DHT22;10710;53.398;-1.514;2022-10-23T14:18:37;17.70;99.90
21104;DHT22;10710;53.398;-1.514;2022-10-23T14:21:05;17.60;99.90
21104;DHT22;10710;53.398;-1.514;2022-10-23T14:23:31;17.60;99.90
21104;DHT22;10710;53.398;-1.514;2022-10-23T14:26:07;17.50;99.90
21104;DHT22;10710;53.398;-1.514;2022-10-23T14:28:35;17.40;99.90
21104;DHT22;10710;53.398;-1.514;2022-10-23T14:31:05;17.40;99.90
21104;DHT22;10710;53.398;-1.514;2022-10-23T14:33:32;17.40;99.90
21104;DHT22;10710;53.398;-1.514;2022-10-23T14:35:58;17.40;99.90
21104;DHT22;10710;53.398;-1.514;2022-10-23T14:38:25;17.40;99.90
21104;DHT22;10710;53.398;-1.514;2022-10-23T14:40:51;17.40;99.90
21104;DHT22;10710;53.398;-1.514;2022-10-23T14:43:17;17.40;99.90
21104;DHT22;10710;53.398;-1.514;2022-10-23T14:45:43;17.30;99.90
21104;DHT22;10710;53.398;-1.514;2022-10-23T14:48:09;17.20;99.90
21104;DHT22;10710;53.398;-1.514;2022-10-23T14:50:37;17.20;99.90
21104;DHT22;10710;53.398;-1.514;2022-10-23T14:53:07;17.10;99.90
21104;DHT22;10710;53.398;-1.514;2022-10-23T14:55:33;17.10;99.90
21104;DHT22;10710;53.398;-1.514;2022-10-23T14:57:59;17.00;99.90
21104;DHT22;10710;53.398;-1.514;2022-10-23T15:00:25;17.00;99.90
21104;DHT22;10710;53.398;-1.514;2022-10-23T15:02:50;17.00;99.90
21104;DHT22;10710;53.398;-1.514;2022-10-23T15:05:17;17.20;99.90
21104;DHT22;10710;53.398;-1.514;2022-10-23T15:07:43;17.40;99.90
21104;DHT22;10710;53.398;-1.514;2022-10-23T15:10:09;17.60;99.90
21104;DHT22;10710;53.398;-1.514;2022-10-23T15:12:36;17.70;99.90
21104;DHT22;10710;53.398;-1.514;2022-10-23T15:15:04;17.70;99.90
21104;DHT22;10710;53.398;-1.514;2022-10-23T15:17:30;17.70;99.90
21104;DHT22;10710;53.398;-1.514;2022-10-23T15:19:59;17.50;99.90
21104;DHT22;10710;53.398;-1.514;2022-10-23T15:22:26;17.40;99.90
21104;DHT22;10710;53.398;-1.514;2022-10-23T15:24:52;17.30;99.90
21104;DHT22;10710;53.398;-1.514;2022-10-23T15:27:19;17.20;99.90
21104;DHT22;10710;53.398;-1.514;2022-10-23T15:29:45;17.10;99.90
21104;DHT22;10710;53.398;-1.514;2022-10-23T15:32:11;17.10;99.90
21104;DHT22;10710;53.398;-1.514;2022-10-23T15:34:37;17.00;99.90
21104;DHT22;10710;53.398;-1.514;2022-10-23T15:37:08;17.10;99.90
21104;DHT22;10710;53.398;-1.514;2022-10-23T15:39:34;17.00;99.90
21104;DHT22;10710;53.398;-1.514;2022-10-23T15:42:02;17.00;99.90
21104;DHT22;10710;53.398;-1.514;2022-10-23T15:44:29;17.00;99.90
21104;DHT22;10710;53.398;-1.514;2022-10-23T15:46:56;16.90;99.90
21104;DHT22;10710;53.398;-1.514;2022-10-23T15:49:23;16.80;99.90
21104;DHT22;10710;53.398;-1.514;2022-10-23T15:51:50;16.60;99.90
21104;DHT22;10710;53.398;-1.514;2022-10-23T15:54:18;16.50;99.90
21104;DHT22;10710;53.398;-1.514;2022-10-23T15:56:47;16.40;99.90
21104;DHT22;10710;53.398;-1.514;2022-10-23T15:59:13;16.30;99.90
21104;DHT22;10710;53.398;-1.514;2022-10-23T16:01:39;16.20;99.90
21104;DHT22;10710;53.398;-1.514;2022-10-23T16:04:05;16.20;99.90
21104;DHT22;10710;53.398;-1.514;2022-10-23T16:06:31;16.30;99.90
21104;DHT22;10710;53.398;-1.514;2022-10-23T16:08:58;16.20;99.90
21104;DHT22;10710;53.398;-1.514;2022-10-23T16:11:26;16.30;99.90
21104;DHT22;10710;53.398;-1.514;2022-10-23T16:13:54;16.20;99.90
21104;DHT22;10710;53.398;-1.514;2022-10-23T16:16:20;16.20;99.90
21104;DHT22;10710;53.398;-1.514;2022-10-23T16:18:46;16.10;99.90
21104;DHT22;10710;53.398;-1.514;2022-10-23T16:21:21;16.10;99.90
21104;DHT22;10710;53.398;-1.514;2022-10-23T16:23:49;16.00;99.90
21104;DHT22;10710;53.398;-1.514;2022-10-23T16:26:15;15.90;99.90
21104;DHT22;10710;53.398;-1.514;2022-10-23T16:28:42;15.80;99.90
21104;DHT22;10710;53.398;-1.514;2022-10-23T16:31:16;15.80;99.90
21104;DHT22;10710;53.398;-1.514;2022-10-23T16:33:42;15.70;99.90
21104;DHT22;10710;53.398;-1.514;2022-10-23T16:36:09;15.70;99.90
21104;DHT22;10710;53.398;-1.514;2022-10-23T16:38:35;15.60;99.90
21104;DHT22;10710;53.398;-1.514;2022-10-23T16:41:01;15.60;99.90
21104;DHT22;10710;53.398;-1.514;2022-10-23T16:43:28;15.60;99.90
21104;DHT22;10710;53.398;-1.514;2022-10-23T16:46:15;15.60;99.90
21104;DHT22;10710;53.398;-1.514;2022-10-23T16:48:42;15.60;99.90
21104;DHT22;10710;53.398;-1.514;2022-10-23T16:51:14;15.60;99.90
21104;DHT22;10710;53.398;-1.514;2022-10-23T16:53:41;15.60;99.90
21104;DHT22;10710;53.398;-1.514;2022-10-23T16:56:10;15.70;99.90
21104;DHT22;10710;53.398;-1.514;2022-10-23T16:58:36;15.70;99.90
21104;DHT22;10710;53.398;-1.514;2022-10-23T17:01:21;15.70;99.90
21104;DHT22;10710;53.398;-1.514;2022-10-23T17:03:49;15.70;99.90
21104;DHT22;10710;53.398;-1.514;2022-10-23T17:06:18;15.70;99.90
21104;DHT22;10710;53.398;-1.514;2022-10-23T17:08:45;15.70;99.90
21104;DHT22;10710;53.398;-1.514;2022-10-23T17:11:13;15.80;99.90
21104;DHT22;10710;53.398;-1.514;2022-10-23T17:13:42;15.70;99.90
21104;DHT22;10710;53.398;-1.514;2022-10-23T17:16:15;15.70;99.90
21104;DHT22;10710;53.398;-1.514;2022-10-23T17:18:42;15.60;99.90
21104;DHT22;10710;53.398;-1.514;2022-10-23T17:21:09;15.60;99.90
21104;DHT22;10710;53.398;-1.514;2022-10-23T17:23:35;15.60;99.90
21104;DHT22;10710;53.398;-1.514;2022-10-23T17:26:01;15.60;99.90
21104;DHT22;10710;53.398;-1.514;2022-10-23T17:28:29;15.50;99.90
21104;DHT22;10710;53.398;-1.514;2022-10-23T17:30:54;15.40;99.90